sensor_id;sensor_type;location;lat;lon;timestamp;pressure;altitude;pressure_sealevel;temperature;humidity
61014;BME280;46899;47.542;19.082;2024-01-30T00:02:43;102857.47;;;-2.01;100.00
61014;BME280;46899;47.542;19.082;2024-01-30T00:05:45;102853.13;;;-2.02;100.00
61014;BME280;46899;47.542;19.082;2024-01-30T00:08:48;102861.44;;;-2.06;100.00
61014;BME280;46899;47.542;19.082;2024-01-30T00:11:54;102861.09;;;-2.12;100.00
61014;BME280;46899;47.542;19.082;2024-01-30T00:14:57;102862.56;;;-2.16;100.00
61014;BME280;46899;47.542;19.082;2024-01-30T00:18:01;102854.94;;;-2.16;100.00
61014;BME280;46899;47.542;19.082;2024-01-30T00:21:03;102861.69;;;-2.16;100.00
61014;BME280;46899;47.542;19.082;2024-01-30T00:24:06;102860.53;;;-2.21;100.00
61014;BME280;46899;47.542;19.082;2024-01-30T00:27:09;102858.81;;;-2.22;100.00
61014;BME280;46899;47.542;19.082;2024-01-30T00:30:12;102857.03;;;-2.23;100.00
61014;BME280;46899;47.542;19.082;2024-01-30T00:33:16;102865.50;;;-2.24;100.00
61014;BME280;46899;47.542;19.082;2024-01-30T00:36:19;102865.13;;;-2.30;100.00
61014;BME280;46899;47.542;19.082;2024-01-30T00:39:22;102866.91;;;-2.29;100.00
61014;BME280;46899;47.542;19.082;2024-01-30T00:42:25;102873.41;;;-2.20;100.00
61014;BME280;46899;47.542;19.082;2024-01-30T00:45:27;102870.31;;;-2.14;100.00
61014;BME280;46899;47.542;19.082;2024-01-30T00:48:30;102865.75;;;-2.20;100.00
61014;BME280;46899;47.542;19.082;2024-01-30T00:51:33;102868.13;;;-2.23;100.00
61014;BME280;46899;47.542;19.082;2024-01-30T00:54:36;102869.72;;;-2.25;100.00
61014;BME280;46899;47.542;19.082;2024-01-30T00:57:38;102863.38;;;-2.31;100.00
61014;BME280;46899;47.542;19.082;2024-01-30T01:00:43;102865.31;;;-2.27;100.00
61014;BME280;46899;47.542;19.082;2024-01-30T01:03:46;102862.25;;;-2.22;100.00
61014;BME280;46899;47.542;19.082;2024-01-30T01:06:51;102860.41;;;-2.24;100.00
61014;BME280;46899;47.542;19.082;2024-01-30T01:09:54;102864.59;;;-2.25;100.00
61014;BME280;46899;47.542;19.082;2024-01-30T01:12:57;102865.31;;;-2.27;100.00
61014;BME280;46899;47.542;19.082;2024-01-30T01:16:00;102858.44;;;-2.28;100.00
61014;BME280;46899;47.542;19.082;2024-01-30T01:19:03;102860.91;;;-2.30;100.00
61014;BME280;46899;47.542;19.082;2024-01-30T01:22:06;102853.53;;;-2.40;100.00
61014;BME280;46899;47.542;19.082;2024-01-30T01:25:09;102853.25;;;-2.44;100.00
61014;BME280;46899;47.542;19.082;2024-01-30T01:28:12;102856.50;;;-2.47;100.00
61014;BME280;46899;47.542;19.082;2024-01-30T01:31:15;102855.53;;;-2.49;100.00
61014;BME280;46899;47.542;19.082;2024-01-30T01:34:20;102848.00;;;-2.47;100.00
61014;BME280;46899;47.542;19.082;2024-01-30T01:37:23;102849.75;;;-2.46;100.00
61014;BME280;46899;47.542;19.082;2024-01-30T01:40:29;102847.13;;;-2.48;100.00
61014;BME280;46899;47.542;19.082;2024-01-30T01:43:32;102848.97;;;-2.45;100.00
61014;BME280;46899;47.542;19.082;2024-01-30T01:46:34;102846.87;;;-2.52;100.00
61014;BME280;46899;47.542;19.082;2024-01-30T01:49:37;102844.22;;;-2.54;100.00
61014;BME280;46899;47.542;19.082;2024-01-30T01:52:41;102843.16;;;-2.57;100.00
61014;BME280;46899;47.542;19.082;2024-01-30T01:55:45;102846.22;;;-2.63;100.00
61014;BME280;46899;47.542;19.082;2024-01-30T01:58:49;102835.84;;;-2.66;100.00
61014;BME280;46899;47.542;19.082;2024-01-30T02:01:52;102840.69;;;-2.70;100.00
61014;BME280;46899;47.542;19.082;2024-01-30T02:04:59;102848.06;;;-2.75;100.00
61014;BME280;46899;47.542;19.082;2024-01-30T02:08:02;102842.88;;;-2.77;100.00
61014;BME280;46899;47.542;19.082;2024-01-30T02:11:06;102840.16;;;-2.80;100.00
61014;BME280;46899;47.542;19.082;2024-01-30T02:14:09;102847.16;;;-2.76;100.00
61014;BME280;46899;47.542;19.082;2024-01-30T02:17:12;102836.97;;;-2.76;100.00
61014;BME280;46899;47.542;19.082;2024-01-30T02:20:15;102830.16;;;-2.77;100.00
61014;BME280;46899;47.542;19.082;2024-01-30T02:23:19;102831.44;;;-2.68;100.00
61014;BME280;46899;47.542;19.082;2024-01-30T02:26:22;102830.06;;;-2.63;100.00
61014;BME280;46899;47.542;19.082;2024-01-30T02:29:25;102831.91;;;-2.61;100.00
61014;BME280;46899;47.542;19.082;2024-01-30T02:32:28;102826.53;;;-2.65;100.00
61014;BME280;46899;47.542;19.082;2024-01-30T02:35:31;102830.94;;;-2.63;100.00
61014;BME280;46899;47.542;19.082;2024-01-30T02:38:34;102830.88;;;-2.64;100.00
61014;BME280;46899;47.542;19.082;2024-01-30T02:41:37;102840.16;;;-2.65;100.00
61014;BME280;46899;47.542;19.082;2024-01-30T02:44:39;102838.12;;;-2.70;100.00
61014;BME280;46899;47.542;19.082;2024-01-30T02:47:42;102838.75;;;-2.74;100.00
61014;BME280;46899;47.542;19.082;2024-01-30T02:50:45;102842.81;;;-2.78;100.00
61014;BME280;46899;47.542;19.082;2024-01-30T02:53:49;102839.25;;;-2.80;100.00
61014;BME280;46899;47.542;19.082;2024-01-30T02:56:52;102836.63;;;-2.82;100.00
61014;BME280;46899;47.542;19.082;2024-01-30T02:59:55;102834.88;;;-2.83;100.00
61014;BME280;46899;47.542;19.082;2024-01-30T03:02:57;102834.88;;;-2.83;100.00
61014;BME280;46899;47.542;19.082;2024-01-30T03:06:01;102838.41;;;-2.81;100.00
61014;BME280;46899;47.542;19.082;2024-01-30T03:09:04;102831.34;;;-2.85;100.00
61014;BME280;46899;47.542;19.082;2024-01-30T03:12:07;102834.78;;;-2.84;100.00
61014;BME280;46899;47.542;19.082;2024-01-30T03:15:12;102832.63;;;-2.78;100.00
61014;BME280;46899;47.542;19.082;2024-01-30T03:18:15;102830.91;;;-2.78;100.00
61014;BME280;46899;47.542;19.082;2024-01-30T03:21:18;102841.72;;;-2.82;100.00
61014;BME280;46899;47.542;19.082;2024-01-30T03:24:21;102848.22;;;-2.87;100.00
61014;BME280;46899;47.542;19.082;2024-01-30T03:27:24;102847.06;;;-2.92;100.00
61014;BME280;46899;47.542;19.082;2024-01-30T03:30:27;102843.97;;;-3.01;100.00
61014;BME280;46899;47.542;19.082;2024-01-30T03:33:29;102841.69;;;-2.96;100.00
61014;BME280;46899;47.542;19.082;2024-01-30T03:36:32;102842.38;;;-2.99;100.00
61014;BME280;46899;47.542;19.082;2024-01-30T03:39:36;102840.03;;;-2.96;100.00
61014;BME280;46899;47.542;19.082;2024-01-30T03:42:39;102832.41;;;-2.96;100.00
61014;BME280;46899;47.542;19.082;2024-01-30T03:45:42;102824.28;;;-3.03;100.00
61014;BME280;46899;47.542;19.082;2024-01-30T03:48:45;102829.22;;;-2.92;100.00
61014;BME280;46899;47.542;19.082;2024-01-30T03:51:48;102821.88;;;-3.02;100.00
61014;BME280;46899;47.542;19.082;2024-01-30T03:54:51;102822.63;;;-3.03;100.00
61014;BME280;46899;47.542;19.082;2024-01-30T03:57:54;102823.34;;;-3.05;100.00
61014;BME280;46899;47.542;19.082;2024-01-30T04:00:57;102817.63;;;-3.01;100.00
61014;BME280;46899;47.542;19.082;2024-01-30T04:04:00;102816.84;;;-3.00;100.00
61014;BME280;46899;47.542;19.082;2024-01-30T04:07:03;102821.47;;;-3.08;100.00
61014;BME280;46899;47.542;19.082;2024-01-30T04:10:06;102825.53;;;-3.11;100.00
61014;BME280;46899;47.542;19.082;2024-01-30T04:13:09;102813.37;;;-3.15;100.00
61014;BME280;46899;47.542;19.082;2024-01-30T04:16:21;102811.22;;;-3.09;100.00
61014;BME280;46899;47.542;19.082;2024-01-30T04:19:27;102811.72;;;-3.15;100.00
61014;BME280;46899;47.542;19.082;2024-01-30T04:22:30;102811.62;;;-3.16;100.00
61014;BME280;46899;47.542;19.082;2024-01-30T04:25:32;102812.69;;;-3.13;100.00
61014;BME280;46899;47.542;19.082;2024-01-30T04:28:35;102810.41;;;-3.08;100.00
61014;BME280;46899;47.542;19.082;2024-01-30T04:31:38;102816.81;;;-3.15;100.00
61014;BME280;46899;47.542;19.082;2024-01-30T04:34:41;102817.78;;;-3.13;100.00
61014;BME280;46899;47.542;19.082;2024-01-30T04:37:44;102822.63;;;-3.03;100.00
61014;BME280;46899;47.542;19.082;2024-01-30T04:40:47;102819.13;;;-3.05;100.00
61014;BME280;46899;47.542;19.082;2024-01-30T04:43:50;102814.81;;;-3.06;100.00
61014;BME280;46899;47.542;19.082;2024-01-30T04:46:52;102817.91;;;-2.97;100.00
61014;BME280;46899;47.542;19.082;2024-01-30T04:49:57;102817.91;;;-2.97;100.00
61014;BME280;46899;47.542;19.082;2024-01-30T04:53:00;102823.59;;;-3.01;100.00
61014;BME280;46899;47.542;19.082;2024-01-30T04:56:04;102819.13;;;-3.05;100.00
61014;BME280;46899;47.542;19.082;2024-01-30T04:59:07;102823.13;;;-3.08;100.00
61014;BME280;46899;47.542;19.082;2024-01-30T05:02:11;102829.22;;;-3.06;100.00
61014;BME280;46899;47.542;19.082;2024-01-30T05:05:14;102833.78;;;-3.01;100.00
61014;BME280;46899;47.542;19.082;2024-01-30T05:08:17;102834.47;;;-3.03;100.00
61014;BME280;46899;47.542;19.082;2024-01-30T05:11:20;102833.50;;;-3.05;100.00
61014;BME280;46899;47.542;19.082;2024-01-30T05:14:23;102839.00;;;-2.99;100.00
61014;BME280;46899;47.542;19.082;2024-01-30T05:17:26;102836.53;;;-2.98;100.00
61014;BME280;46899;47.542;19.082;2024-01-30T05:20:28;102842.59;;;-2.96;100.00
61014;BME280;46899;47.542;19.082;2024-01-30T05:23:31;102849.94;;;-3.00;100.00
61014;BME280;46899;47.542;19.082;2024-01-30T05:26:34;102857.31;;;-3.05;100.00
61014;BME280;46899;47.542;19.082;2024-01-30T05:29:37;102862.06;;;-2.96;100.00
61014;BME280;46899;47.542;19.082;2024-01-30T05:32:39;102859.63;;;-2.95;100.00
61014;BME280;46899;47.542;19.082;2024-01-30T05:35:43;102859.28;;;-2.86;100.00
61014;BME280;46899;47.542;19.082;2024-01-30T05:38:45;102859.91;;;-2.90;100.00
61014;BME280;46899;47.542;19.082;2024-01-30T05:41:48;102858.06;;;-2.93;100.00
61014;BME280;46899;47.542;19.082;2024-01-30T05:44:53;102862.59;;;-2.87;100.00
61014;BME280;46899;47.542;19.082;2024-01-30T05:47:56;102873.34;;;-2.93;100.00
61014;BME280;46899;47.542;19.082;2024-01-30T05:50:59;102867.66;;;-3.16;100.00
61014;BME280;46899;47.542;19.082;2024-01-30T05:54:02;102870.81;;;-3.20;100.00
61014;BME280;46899;47.542;19.082;2024-01-30T05:57:07;102871.75;;;-3.18;100.00
61014;BME280;46899;47.542;19.082;2024-01-30T06:00:10;102862.22;;;-3.08;100.00
61014;BME280;46899;47.542;19.082;2024-01-30T06:03:13;102868.28;;;-3.06;100.00
61014;BME280;46899;47.542;19.082;2024-01-30T06:06:16;102861.09;;;-2.98;100.00
61014;BME280;46899;47.542;19.082;2024-01-30T06:09:19;102871.72;;;-3.05;100.00
61014;BME280;46899;47.542;19.082;2024-01-30T06:12:22;102873.97;;;-3.10;100.00
61014;BME280;46899;47.542;19.082;2024-01-30T06:15:25;102872.50;;;-3.06;100.00
61014;BME280;46899;47.542;19.082;2024-01-30T06:18:28;102879.25;;;-3.07;100.00
61014;BME280;46899;47.542;19.082;2024-01-30T06:21:33;102870.66;;;-3.09;100.00
61014;BME280;46899;47.542;19.082;2024-01-30T06:24:39;102865.72;;;-3.06;100.00
61014;BME280;46899;47.542;19.082;2024-01-30T06:27:42;102873.38;;;-3.06;100.00
61014;BME280;46899;47.542;19.082;2024-01-30T06:30:45;102869.25;;;-3.04;100.00
61014;BME280;46899;47.542;19.082;2024-01-30T06:33:49;102867.44;;;-2.92;100.00
61014;BME280;46899;47.542;19.082;2024-01-30T06:36:52;102866.72;;;-2.89;100.00
61014;BME280;46899;47.542;19.082;2024-01-30T06:39:55;102871.41;;;-2.82;100.00
61014;BME280;46899;47.542;19.082;2024-01-30T06:42:58;102881.97;;;-2.76;100.00
61014;BME280;46899;47.542;19.082;2024-01-30T06:46:00;102883.91;;;-2.72;100.00
61014;BME280;46899;47.542;19.082;2024-01-30T06:49:03;102878.66;;;-2.60;100.00
61014;BME280;46899;47.542;19.082;2024-01-30T06:52:06;102880.16;;;-2.49;100.00
61014;BME280;46899;47.542;19.082;2024-01-30T06:55:09;102877.41;;;-2.38;100.00
61014;BME280;46899;47.542;19.082;2024-01-30T06:58:12;102877.09;;;-2.29;100.00
61014;BME280;46899;47.542;19.082;2024-01-30T07:01:16;102875.50;;;-2.27;100.00
61014;BME280;46899;47.542;19.082;2024-01-30T07:04:19;102878.56;;;-2.18;100.00
61014;BME280;46899;47.542;19.082;2024-01-30T07:07:22;102874.00;;;-2.09;100.00
61014;BME280;46899;47.542;19.082;2024-01-30T07:10:27;102874.44;;;-2.01;100.00
61014;BME280;46899;47.542;19.082;2024-01-30T07:13:30;102880.22;;;-1.89;100.00
61014;BME280;46899;47.542;19.082;2024-01-30T07:16:33;102879.69;;;-1.84;100.00
61014;BME280;46899;47.542;19.082;2024-01-30T07:19:36;102889.69;;;-1.72;100.00
61014;BME280;46899;47.542;19.082;2024-01-30T07:22:40;102885.97;;;-1.63;100.00
61014;BME280;46899;47.542;19.082;2024-01-30T07:25:46;102887.44;;;-1.52;100.00
61014;BME280;46899;47.542;19.082;2024-01-30T07:28:53;102885.69;;;-1.37;100.00
61014;BME280;46899;47.542;19.082;2024-01-30T07:31:55;102883.50;;;-1.14;100.00
61014;BME280;46899;47.542;19.082;2024-01-30T07:34:58;102882.56;;;-1.00;100.00
61014;BME280;46899;47.542;19.082;2024-01-30T07:38:10;102878.66;;;-0.44;100.00
61014;BME280;46899;47.542;19.082;2024-01-30T07:41:13;102875.94;;;0.22;100.00
61014;BME280;46899;47.542;19.082;2024-01-30T07:44:15;102883.09;;;0.84;100.00
61014;BME280;46899;47.542;19.082;2024-01-30T07:47:19;102876.75;;;2.14;100.00
61014;BME280;46899;47.542;19.082;2024-01-30T07:50:21;102887.97;;;2.83;100.00
61014;BME280;46899;47.542;19.082;2024-01-30T07:53:24;102888.22;;;3.12;100.00
61014;BME280;46899;47.542;19.082;2024-01-30T07:56:27;102877.56;;;3.51;100.00
61014;BME280;46899;47.542;19.082;2024-01-30T07:59:30;102881.72;;;3.47;100.00
61014;BME280;46899;47.542;19.082;2024-01-30T08:02:33;102885.88;;;2.50;100.00
61014;BME280;46899;47.542;19.082;2024-01-30T08:05:36;102884.25;;;1.68;100.00
61014;BME280;46899;47.542;19.082;2024-01-30T08:08:38;102885.59;;;0.82;100.00
61014;BME280;46899;47.542;19.082;2024-01-30T08:11:41;102889.66;;;1.15;100.00
61014;BME280;46899;47.542;19.082;2024-01-30T08:14:44;102885.56;;;2.43;100.00
61014;BME280;46899;47.542;19.082;2024-01-30T08:17:47;102886.41;;;3.59;100.00
61014;BME280;46899;47.542;19.082;2024-01-30T08:20:49;102893.28;;;4.37;100.00
61014;BME280;46899;47.542;19.082;2024-01-30T08:23:52;102883.75;;;5.20;95.74
61014;BME280;46899;47.542;19.082;2024-01-30T08:26:55;102897.72;;;5.91;87.96
61014;BME280;46899;47.542;19.082;2024-01-30T08:29:58;102896.06;;;5.30;86.79
61014;BME280;46899;47.542;19.082;2024-01-30T08:33:00;102903.72;;;4.68;91.40
61014;BME280;46899;47.542;19.082;2024-01-30T08:36:03;102898.00;;;3.71;96.19
61014;BME280;46899;47.542;19.082;2024-01-30T08:39:06;102899.62;;;3.20;100.00
61014;BME280;46899;47.542;19.082;2024-01-30T08:42:09;102899.03;;;2.80;100.00
61014;BME280;46899;47.542;19.082;2024-01-30T08:45:12;102899.06;;;2.59;100.00
61014;BME280;46899;47.542;19.082;2024-01-30T08:48:15;102906.12;;;2.65;100.00
61014;BME280;46899;47.542;19.082;2024-01-30T08:51:20;102902.44;;;2.81;100.00
61014;BME280;46899;47.542;19.082;2024-01-30T08:54:23;102902.00;;;2.68;100.00
61014;BME280;46899;47.542;19.082;2024-01-30T08:57:26;102907.72;;;2.61;100.00
61014;BME280;46899;47.542;19.082;2024-01-30T09:00:31;102899.78;;;2.78;100.00
61014;BME280;46899;47.542;19.082;2024-01-30T09:03:34;102887.78;;;2.78;100.00
61014;BME280;46899;47.542;19.082;2024-01-30T09:06:37;102887.22;;;3.09;100.00
61014;BME280;46899;47.542;19.082;2024-01-30T09:09:42;102891.88;;;3.42;100.00
61014;BME280;46899;47.542;19.082;2024-01-30T09:12:45;102885.03;;;3.43;100.00
61014;BME280;46899;47.542;19.082;2024-01-30T09:15:47;102890.50;;;4.02;100.00
61014;BME280;46899;47.542;19.082;2024-01-30T09:18:51;102888.91;;;4.07;100.00
61014;BME280;46899;47.542;19.082;2024-01-30T09:21:54;102885.53;;;4.08;100.00
61014;BME280;46899;47.542;19.082;2024-01-30T09:24:57;102884.59;;;4.06;100.00
61014;BME280;46899;47.542;19.082;2024-01-30T09:28:00;102888.25;;;4.13;100.00
61014;BME280;46899;47.542;19.082;2024-01-30T09:31:03;102884.63;;;4.08;100.00
61014;BME280;46899;47.542;19.082;2024-01-30T09:34:06;102878.72;;;3.84;100.00
61014;BME280;46899;47.542;19.082;2024-01-30T09:37:09;102878.13;;;3.92;100.00
61014;BME280;46899;47.542;19.082;2024-01-30T09:40:12;102877.09;;;3.87;100.00
61014;BME280;46899;47.542;19.082;2024-01-30T09:43:17;102882.69;;;4.28;100.00
61014;BME280;46899;47.542;19.082;2024-01-30T09:46:27;102875.75;;;4.25;100.00
61014;BME280;46899;47.542;19.082;2024-01-30T09:49:32;102881.97;;;4.32;100.00
61014;BME280;46899;47.542;19.082;2024-01-30T09:52:35;102881.78;;;4.26;100.00
61014;BME280;46899;47.542;19.082;2024-01-30T09:55:42;102881.50;;;4.17;100.00
61014;BME280;46899;47.542;19.082;2024-01-30T09:58:45;102882.69;;;4.28;100.00
61014;BME280;46899;47.542;19.082;2024-01-30T10:01:50;102877.94;;;4.68;100.00
61014;BME280;46899;47.542;19.082;2024-01-30T10:04:53;102886.47;;;4.67;100.00
61014;BME280;46899;47.542;19.082;2024-01-30T10:07:59;102885.03;;;4.47;100.00
61014;BME280;46899;47.542;19.082;2024-01-30T10:11:02;102888.53;;;4.22;100.00
61014;BME280;46899;47.542;19.082;2024-01-30T10:14:05;102883.38;;;4.22;100.00
61014;BME280;46899;47.542;19.082;2024-01-30T10:17:09;102884.16;;;4.20;100.00
61014;BME280;46899;47.542;19.082;2024-01-30T10:20:24;102878.81;;;4.40;100.00
61014;BME280;46899;47.542;19.082;2024-01-30T10:23:28;102872.53;;;4.60;100.00
61014;BME280;46899;47.542;19.082;2024-01-30T10:26:38;102871.94;;;4.69;100.00
61014;BME280;46899;47.542;19.082;2024-01-30T10:29:40;102853.25;;;5.06;100.00
61014;BME280;46899;47.542;19.082;2024-01-30T10:32:43;102851.25;;;4.97;100.00
61014;BME280;46899;47.542;19.082;2024-01-30T10:35:46;102860.66;;;5.58;100.00
61014;BME280;46899;47.542;19.082;2024-01-30T10:38:51;102856.72;;;5.72;100.00
61014;BME280;46899;47.542;19.082;2024-01-30T10:41:56;102849.72;;;6.00;99.77
61014;BME280;46899;47.542;19.082;2024-01-30T10:45:09;102843.09;;;6.50;96.50
61014;BME280;46899;47.542;19.082;2024-01-30T10:48:17;102836.81;;;6.39;97.46
61014;BME280;46899;47.542;19.082;2024-01-30T10:51:26;102828.75;;;6.26;97.49
61014;BME280;46899;47.542;19.082;2024-01-30T10:54:31;102823.56;;;6.24;97.61
61014;BME280;46899;47.542;19.082;2024-01-30T10:57:35;102816.13;;;6.39;97.02
61014;BME280;46899;47.542;19.082;2024-01-30T11:00:39;102816.91;;;6.35;96.22
61014;BME280;46899;47.542;19.082;2024-01-30T11:03:42;102811.16;;;6.48;96.13
61014;BME280;46899;47.542;19.082;2024-01-30T11:06:45;102806.31;;;6.63;95.99
61014;BME280;46899;47.542;19.082;2024-01-30T11:13:10;102805.53;;;6.27;95.75
61014;BME280;46899;47.542;19.082;2024-01-30T11:16:12;102792.22;;;6.49;95.86
61014;BME280;46899;47.542;19.082;2024-01-30T11:19:22;102792.28;;;6.52;91.07
61014;BME280;46899;47.542;19.082;2024-01-30T11:22:26;102787.00;;;6.48;92.33
61014;BME280;46899;47.542;19.082;2024-01-30T11:25:31;102788.38;;;6.72;89.69
61014;BME280;46899;47.542;19.082;2024-01-30T11:28:37;102792.50;;;6.63;91.07
61014;BME280;46899;47.542;19.082;2024-01-30T11:31:51;102787.31;;;6.21;92.33
61014;BME280;46899;47.542;19.082;2024-01-30T11:34:55;102786.75;;;5.97;93.79
61014;BME280;46899;47.542;19.082;2024-01-30T11:37:59;102788.53;;;5.99;94.73
61014;BME280;46899;47.542;19.082;2024-01-30T11:41:03;102773.84;;;6.37;93.14
61014;BME280;46899;47.542;19.082;2024-01-30T11:44:07;102787.31;;;6.21;92.73
61014;BME280;46899;47.542;19.082;2024-01-30T11:47:09;102776.88;;;6.18;93.71
61014;BME280;46899;47.542;19.082;2024-01-30T11:50:13;102770.94;;;6.22;93.88
61014;BME280;46899;47.542;19.082;2024-01-30T11:53:16;102766.28;;;6.46;92.97
61014;BME280;46899;47.542;19.082;2024-01-30T11:56:19;102763.34;;;6.30;92.13
61014;BME280;46899;47.542;19.082;2024-01-30T11:59:22;102761.63;;;6.29;92.19
61014;BME280;46899;47.542;19.082;2024-01-30T12:02:25;102757.19;;;6.23;89.27
61014;BME280;46899;47.542;19.082;2024-01-30T12:05:56;102758.53;;;6.06;91.70
61014;BME280;46899;47.542;19.082;2024-01-30T12:09:02;102744.25;;;6.22;90.20
61014;BME280;46899;47.542;19.082;2024-01-30T12:12:10;102739.88;;;6.19;90.33
61014;BME280;46899;47.542;19.082;2024-01-30T12:15:14;102734.63;;;6.16;89.87
61014;BME280;46899;47.542;19.082;2024-01-30T12:18:18;102736.62;;;6.29;89.01
61014;BME280;46899;47.542;19.082;2024-01-30T12:21:23;102739.31;;;5.93;90.41
61014;BME280;46899;47.542;19.082;2024-01-30T12:24:27;102729.91;;;5.98;89.25
61014;BME280;46899;47.542;19.082;2024-01-30T12:27:30;102728.28;;;6.02;88.27
61014;BME280;46899;47.542;19.082;2024-01-30T12:30:34;102737.25;;;5.82;89.71
61014;BME280;46899;47.542;19.082;2024-01-30T12:33:37;102727.53;;;5.70;90.79
61014;BME280;46899;47.542;19.082;2024-01-30T12:36:40;102733.09;;;5.87;90.51
61014;BME280;46899;47.542;19.082;2024-01-30T12:39:43;102723.03;;;5.97;90.46
61014;BME280;46899;47.542;19.082;2024-01-30T12:42:47;102720.72;;;6.11;89.03
61014;BME280;46899;47.542;19.082;2024-01-30T12:45:53;102720.03;;;6.18;86.62
61014;BME280;46899;47.542;19.082;2024-01-30T12:48:56;102716.16;;;6.40;85.28
61014;BME280;46899;47.542;19.082;2024-01-30T12:51:59;102713.41;;;6.32;83.12
61014;BME280;46899;47.542;19.082;2024-01-30T12:55:02;102713.41;;;6.32;82.97
61014;BME280;46899;47.542;19.082;2024-01-30T12:58:06;102712.53;;;6.32;83.14
61014;BME280;46899;47.542;19.082;2024-01-30T13:01:10;102708.09;;;6.25;81.65
61014;BME280;46899;47.542;19.082;2024-01-30T13:04:13;102703.81;;;6.25;81.13
61014;BME280;46899;47.542;19.082;2024-01-30T13:07:16;102695.16;;;6.23;79.49
61014;BME280;46899;47.542;19.082;2024-01-30T13:10:19;102697.97;;;6.35;80.06
61014;BME280;46899;47.542;19.082;2024-01-30T13:13:22;102699.50;;;6.24;80.50
61014;BME280;46899;47.542;19.082;2024-01-30T13:16:25;102689.09;;;6.22;80.70
61014;BME280;46899;47.542;19.082;2024-01-30T13:19:28;102690.59;;;6.11;80.74
61014;BME280;46899;47.542;19.082;2024-01-30T13:22:31;102682.31;;;6.28;80.08
61014;BME280;46899;47.542;19.082;2024-01-30T13:25:34;102686.03;;;6.42;79.27
61014;BME280;46899;47.542;19.082;2024-01-30T13:28:37;102682.25;;;6.25;79.51
61014;BME280;46899;47.542;19.082;2024-01-30T13:31:40;102684.19;;;6.36;78.08
61014;BME280;46899;47.542;19.082;2024-01-30T13:34:43;102685.84;;;6.31;78.06
61014;BME280;46899;47.542;19.082;2024-01-30T13:37:46;102688.53;;;6.37;77.89
61014;BME280;46899;47.542;19.082;2024-01-30T13:40:50;102688.47;;;6.34;78.44
61014;BME280;46899;47.542;19.082;2024-01-30T13:43:53;102689.16;;;6.26;79.25
61014;BME280;46899;47.542;19.082;2024-01-30T13:46:56;102686.59;;;6.26;79.48
61014;BME280;46899;47.542;19.082;2024-01-30T13:49:59;102684.69;;;6.17;79.02
61014;BME280;46899;47.542;19.082;2024-01-30T13:53:03;102681.41;;;6.24;77.84
61014;BME280;46899;47.542;19.082;2024-01-30T13:56:07;102681.50;;;6.30;77.40
61014;BME280;46899;47.542;19.082;2024-01-30T13:59:10;102676.25;;;6.27;75.66
61014;BME280;46899;47.542;19.082;2024-01-30T14:02:12;102677.78;;;6.16;72.26
61014;BME280;46899;47.542;19.082;2024-01-30T14:05:15;102677.03;;;6.22;73.10
61014;BME280;46899;47.542;19.082;2024-01-30T14:08:19;102680.63;;;6.30;72.17
61014;BME280;46899;47.542;19.082;2024-01-30T14:11:24;102674.41;;;6.20;71.65
61014;BME280;46899;47.542;19.082;2024-01-30T14:14:27;102672.59;;;6.16;70.94
61014;BME280;46899;47.542;19.082;2024-01-30T14:17:29;102675.62;;;5.95;70.84
61014;BME280;46899;47.542;19.082;2024-01-30T14:20:32;102665.22;;;5.94;71.09
61014;BME280;46899;47.542;19.082;2024-01-30T14:23:35;102668.44;;;5.84;70.71
61014;BME280;46899;47.542;19.082;2024-01-30T14:26:38;102668.78;;;5.97;69.96
61014;BME280;46899;47.542;19.082;2024-01-30T14:29:41;102663.41;;;5.88;69.67
61014;BME280;46899;47.542;19.082;2024-01-30T14:32:45;102666.81;;;5.86;70.17
61014;BME280;46899;47.542;19.082;2024-01-30T14:35:49;102663.00;;;5.72;70.75
61014;BME280;46899;47.542;19.082;2024-01-30T14:38:54;102656.91;;;5.68;71.43
61014;BME280;46899;47.542;19.082;2024-01-30T14:41:57;102663.63;;;5.60;71.22
61014;BME280;46899;47.542;19.082;2024-01-30T14:45:00;102661.06;;;5.62;71.29
61014;BME280;46899;47.542;19.082;2024-01-30T14:48:03;102658.28;;;5.52;72.10
61014;BME280;46899;47.542;19.082;2024-01-30T14:51:06;102659.78;;;5.43;72.51
61014;BME280;46899;47.542;19.082;2024-01-30T14:54:09;102659.47;;;5.31;72.87
61014;BME280;46899;47.542;19.082;2024-01-30T14:57:12;102658.38;;;5.21;73.76
61014;BME280;46899;47.542;19.082;2024-01-30T15:00:17;102658.25;;;5.15;74.22
61014;BME280;46899;47.542;19.082;2024-01-30T15:03:19;102665.88;;;5.11;75.12
61014;BME280;46899;47.542;19.082;2024-01-30T15:06:33;102656.00;;;4.95;75.84
61014;BME280;46899;47.542;19.082;2024-01-30T15:09:35;102657.44;;;4.83;77.51
61014;BME280;46899;47.542;19.082;2024-01-30T15:12:38;102655.44;;;4.72;77.96
61014;BME280;46899;47.542;19.082;2024-01-30T15:15:41;102657.81;;;4.64;78.89
61014;BME280;46899;47.542;19.082;2024-01-30T15:18:45;102662.62;;;4.52;80.06
61014;BME280;46899;47.542;19.082;2024-01-30T15:21:48;102652.84;;;4.39;81.04
61014;BME280;46899;47.542;19.082;2024-01-30T15:24:50;102656.59;;;4.19;82.46
61014;BME280;46899;47.542;19.082;2024-01-30T15:27:53;102655.16;;;4.00;85.12
61014;BME280;46899;47.542;19.082;2024-01-30T15:30:56;102654.19;;;3.95;84.92
61014;BME280;46899;47.542;19.082;2024-01-30T15:34:01;102652.06;;;3.82;85.51
61014;BME280;46899;47.542;19.082;2024-01-30T15:37:04;102651.78;;;3.73;87.10
61014;BME280;46899;47.542;19.082;2024-01-30T15:40:07;102655.91;;;3.67;86.84
61014;BME280;46899;47.542;19.082;2024-01-30T15:43:11;102655.47;;;3.53;87.88
61014;BME280;46899;47.542;19.082;2024-01-30T15:46:14;102652.38;;;3.36;89.90
61014;BME280;46899;47.542;19.082;2024-01-30T15:49:17;102658.94;;;3.27;91.45